Airfield :
LOGIN :

Register | Disclaimer

   EN    FR    IT 

 










Legend :    VFR   Marginal VFR   IFR   Intensive IFR   Very Intensive IFR
Visi :
Ceiling :
>= 8 km
>= 3000ft
5 to 8 km
1000 to 3000 ft
1500m to 5 km
500 to 1000 ft
800 to 1500m
200 to 500 ft
< 800m
< 200 ft
Symbols :   Thunderstorms  Fog  Heavy snow  Heavy precipitations  Wind > 20 kt
SIGMETs :     Misc.  Thunderstorms  Icing  Turbulence  Mountain Waves  Volcanic Ashes






- Airport Elevation : 764 ft
- IATA code : YEI


LTBR - Yenisehir AB

CURRENT METAR :
  • 071520Z 36013KT 9999 FEW040 29/18 Q1007 NOSIG RMK RWY07 01015KT

EXPIRED METARs :
  • 071450Z 36015KT 9999 FEW040 29/18 Q1007 NOSIG RMK RWY07 01015KT
  • 071420Z 36013KT 9999 SCT040 30/18 Q1007 NOSIG RMK RWY07 01014KT
  • 071350Z 36012KT 9999 SCT040 30/18 Q1007 NOSIG RMK RWY07 36013KT 340V050
  • 071320Z 01013KT 9999 SCT040 30/18 Q1007 NOSIG RMK RWY07 36012KT
  • 071250Z 36012KT 9999 SCT040 30/18 Q1007 NOSIG RMK RWY07 36012KT 330V030

TAF TAF LTBR
Valid from the 07 at 12:00 until the 08 at 12:00 UTC


071040Z 0712/0812 01012KT 9999 SCT040
BECMG 0715/0719 VRB02KT CAVOK
BECMG 0806/0810 36012KT SCT035
PROB30
TEMPO 0810/0812 -TSRA FEW030CB BKN030



MET'MAP, your aeronautical weather chart ! - Copyright ORBIFLY December 2007 - Disclaimer

ORBIFLY MET'MAP TEAM :

Programming & Development : Alexandra Zaïnal
Original concept : Baudouin d'Aumeries
Technical & hardware support : Manuel Goepfert
Assistance : Marc-Olivier Méhu




SOURCES & CREDITS :

   NOAA